Latest Coastal Weather Observations for Lady Elliot Island

IDQ60701

Issued at 2:51 am EST Saturday 7 May 2016 (issued every 10 minutes, with the page automatically refreshed every 10 minutes)

About coastal observations | Map of coastal stations | Coastal observations for QLD | Marine services | Other Formats
Station Details ID: 039059 Name: LADY ELLIOT ISLAND Lat: -24.11 Lon: 152.72 Height: 3.6 m
Data from the previous 72 hours. | See also: Recent months at Lady Elliot Island
Date/Time
EST
Temp

°C
Wind Pressure Rain
since 9am
mm
Weather Cloud Vis
km
Sea
Height
m
Swell
Dir
 
Speed
knots
Gust
knots
hPa Trend Height
m
Period
s
Dir
07/02:30am 22.2 ESE 9 13 1016.4 - 0.8 - - - - - - -
07/02:00am 23.2 ESE 6 9 1016.2 - 0.0 - - - - - - -
07/01:30am 22.9 ESE 7 10 1016.4 - 0.0 - - - - - - -
07/01:00am 22.8 SE 8 10 1016.6 - 0.0 - - - - - - -
07/12:30am 23.2 SE 7 10 1017.0 - 0.0 - - - - - - -
07/12:00am 23.3 SE 8 10 1017.2 - 0.0 - - - - - - -
 
Date/Time
EST
Temp

°C
Wind Pressure Rain
since 9am
mm
Weather Cloud Vis
km
Sea
Height
m
Swell
Dir
 
Speed
knots
Gust
knots
hPa Trend Height
m
Period
s
Dir
06/11:30pm 23.3 SE 8 11 1017.6 - 0.0 - - - - - - -
06/11:00pm 23.3 SE 9 11 1017.9 - 0.0 - - - - - - -
06/10:30pm 23.3 SE 10 12 1018.1 - 0.0 - - - - - - -
06/10:00pm 23.2 SE 9 11 1018.1 - 0.0 - - - - - - -
06/09:30pm 23.4 SE 9 12 1018.0 - 0.0 - - - - - - -
06/09:00pm 23.5 SE 11 14 1018.2 - 0.0 - - - - - - -
06/08:30pm 23.5 SE 11 13 1017.7 - 0.0 - - - - - - -
06/08:00pm 23.4 SE 11 14 1017.4 - 0.0 - - - - - - -
06/07:30pm 23.3 SE 11 14 1017.3 - 0.0 - - - - - - -
06/07:00pm 23.1 SE 10 12 1017.4 - 0.0 - - - - - - -
06/06:30pm 23.1 SE 9 11 1017.3 - 0.0 - - - - - - -
06/06:00pm 22.8 ESE 8 11 1017.1 - 0.0 - - - - - - -
06/05:30pm 22.8 SE 9 12 1016.8 - 0.0 - - - - - - -
06/05:00pm 22.9 SE 9 11 1016.4 - 0.0 - - - - - - -
06/04:30pm 23.0 SE 8 10 1016.1 - 0.0 - - - - - - -
06/04:00pm 23.1 SE 7 9 1015.8 - 0.0 - - - - - - -
06/03:30pm 23.3 SE 7 8 1016.3 - 0.0 - - - - - - -
06/03:00pm 23.7 SE 8 11 1016.2 - 0.0 - - - - - - -
06/02:30pm 24.2 SE 10 12 1016.2 - 0.0 - - - - - - -
06/02:00pm 24.2 SE 9 12 1016.2 - 0.0 - - - - - - -
06/01:30pm 24.9 SE 8 10 1016.3 - 0.0 - - - - - - -
06/01:00pm 24.9 SE 9 11 1016.4 - 0.0 - - - - - - -
06/12:30pm 24.9 SE 9 12 1016.8 - 0.0 - - - - - - -
06/12:00pm 24.5 SE 9 11 1017.2 - 0.0 - - - - - - -
06/11:30am 25.0 SE 9 11 1017.5 - 0.0 - - - - - - -
06/11:00am 24.3 SE 9 12 1017.9 - 0.0 - - - - - - -
06/10:30am 24.9 SE 8 11 1018.6 - 0.0 - - - - - - -
06/10:00am 24.3 SE 8 11 1018.8 - 0.0 - - - - - - -
06/09:30am 24.8 SE 8 10 1019.1 - 0.0 - - - - - - -
06/09:00am 24.4 SE 8 11 1018.9 - 0.0 - - - - - - -
06/08:30am 24.2 SE 9 11 1018.6 - 0.0 - - - - - - -
06/08:00am 24.0 SE 8 10 1018.4 - 0.0 - - - - - - -
06/07:30am 23.6 SE 8 10 1018.1 - 0.0 - - - - - - -
06/07:00am 22.9 SE 9 11 1017.3 - 0.0 - - - - - - -
06/06:30am 22.7 SE 9 12 1017.0 - 0.0 - - - - - - -
06/06:00am 22.5 SE 9 11 1016.9 - 0.0 - - - - - - -
06/05:30am 22.5 SE 9 11 1016.7 - 0.0 - - - - - - -
06/05:00am 22.5 SE 8 11 1016.5 - 0.0 - - - - - - -
06/04:30am 22.7 SE 9 11 1016.5 - 0.0 - - - - - - -
06/04:00am 22.5 SE 9 11 1016.3 - 0.0 - - - - - - -
06/03:30am 22.5 ESE 9 11 1016.3 - 0.0 - - - - - - -
06/03:00am 22.4 SE 8 11 1016.4 - 0.0 - - - - - - -
06/02:30am 22.6 ESE 9 11 1016.5 - 0.0 - - - - - - -
06/02:00am 22.4 ESE 9 11 1016.9 - 0.0 - - - - - - -
06/01:30am 22.6 ESE 10 12 1017.1 - 0.0 - - - - - - -
06/01:00am 22.7 ESE 10 13 1017.3 - 0.0 - - - - - - -
06/12:30am 22.9 ESE 11 14 1017.5 - 0.0 - - - - - - -
06/12:00am 23.1 ESE 11 14 1017.5 - 0.0 - - - - - - -
 
Date/Time
EST
Temp

°C
Wind Pressure Rain
since 9am
mm
Weather Cloud Vis
km
Sea
Height
m
Swell
Dir
 
Speed
knots
Gust
knots
hPa Trend Height
m
Period
s
Dir
05/11:30pm 23.1 SE 12 14 1017.5 - 0.0 - - - - - - -
05/11:00pm 23.3 ESE 11 13 1018.0 - 0.0 - - - - - - -
05/10:30pm 23.3 ESE 12 15 1018.1 - 0.0 - - - - - - -
05/10:00pm 23.5 ESE 12 15 1018.3 - 0.0 - - - - - - -
05/09:30pm 23.4 SE 13 16 1018.3 - 0.0 - - - - - - -
05/09:00pm 23.6 ESE 13 16 1018.3 - 0.0 - - - - - - -
05/08:30pm 23.7 ESE 12 15 1018.5 - 0.0 - - - - - - -
05/08:00pm 23.5 ESE 14 17 1018.3 - 0.0 - - - - - - -
05/07:30pm 23.6 ESE 14 16 1018.1 - 0.0 - - - - - - -
05/07:00pm 23.5 ESE 13 17 1017.7 - 0.0 - - - - - - -
05/06:30pm 23.4 ESE 12 16 1017.4 - 0.0 - - - - - - -
05/06:00pm 23.4 ESE 12 15 1017.2 - 0.0 - - - - - - -
05/05:30pm 23.4 ESE 10 14 1017.0 - 0.0 - - - - - - -
05/05:00pm 23.4 SE 9 12 1016.6 - 0.0 - - - - - - -
05/04:30pm 24.1 SE 9 12 1016.5 - 0.0 - - - - - - -
05/04:00pm 24.4 SE 8 11 1016.3 - 0.0 - - - - - - -
05/03:30pm 24.6 SSE 8 11 1016.5 - 0.0 - - - - - - -
05/03:00pm 24.2 SSE 10 13 1016.4 - 0.0 - - - - - - -
05/02:30pm 25.3 SSE 9 12 1016.4 - 0.0 - - - - - - -
05/02:00pm 25.4 SSE 8 12 1016.6 - 0.0 - - - - - - -
05/01:30pm 25.3 SE 12 14 1016.7 - 0.0 - - - - - - -
05/01:00pm 25.2 SE 12 14 1017.0 - 0.0 - - - - - - -
05/12:30pm 25.5 SE 11 15 1017.4 - 0.0 - - - - - - -
05/12:00pm 25.4 SE 13 17 1017.7 - 0.0 - - - - - - -
05/11:30am 25.6 SE 11 16 1018.1 - 0.0 - - - - - - -
05/11:00am 25.3 SE 13 16 1018.5 - 0.0 - - - - - - -
05/10:30am 25.0 SE 12 17 1018.9 - 0.0 - - - - - - -
05/10:00am 25.0 SE 11 18 1019.2 - 0.0 - - - - - - -
05/09:30am 25.1 SSE 10 15 1019.3 - 0.0 - - - - - - -
05/09:00am 24.6 SE 11 16 1019.2 - 0.2 - - - - - - -
05/08:30am 24.4 SE 11 15 1018.9 - 0.2 - - - - - - -
05/08:00am 24.2 SSE 11 14 1018.5 - 0.2 - - - - - - -
05/07:30am 24.0 SE 11 15 1018.3 - 0.2 - - - - - - -
05/07:00am 23.5 SE 11 15 1017.9 - 0.2 - - - - - - -
05/06:30am 23.2 SSE 9 12 1017.6 - 0.2 - - - - - - -
05/06:00am 23.0 SE 10 12 1017.3 - 0.2 - - - - - - -
05/05:30am 23.0 SE 9 13 1016.9 - 0.2 - - - - - - -
05/05:00am 22.9 SSE 8 13 1016.7 - 0.2 - - - - - - -
05/04:30am 23.0 SSE 8 11 1016.4 - 0.2 - - - - - - -
05/04:00am 22.9 SSE 7 11 1016.4 - 0.2 - - - - - - -
05/03:30am 22.8 SSE 7 11 1016.2 - 0.2 - - - - - - -
05/03:00am 22.7 SE 9 11 1016.0 - 0.2 - - - - - - -
05/02:30am 22.7 SE 9 11 1016.0 - 0.2 - - - - - - -
05/02:00am 22.8 SE 8 11 1016.3 - 0.2 - - - - - - -
05/01:30am 22.8 SE 9 11 1016.4 - 0.2 - - - - - - -
05/01:00am 22.8 SE 9 11 1016.4 - 0.2 - - - - - - -
05/12:30am 22.6 SE 9 11 1016.7 - 0.2 - - - - - - -
05/12:00am 22.9 SE 9 10 1016.8 - 0.2 - - - - - - -
 
Date/Time
EST
Temp

°C
Wind Pressure Rain
since 9am
mm
Weather Cloud Vis
km
Sea
Height
m
Swell
Dir
 
Speed
knots
Gust
knots
hPa Trend Height
m
Period
s
Dir
04/11:30pm 23.0 ESE 9 11 1017.0 - 0.2 - - - - - - -
04/11:00pm 23.0 SE 9 11 1017.3 - 0.2 - - - - - - -
04/10:30pm 23.2 ESE 9 11 1017.3 - 0.2 - - - - - - -
04/10:00pm 23.4 ESE 10 12 1017.5 - 0.2 - - - - - - -
04/09:30pm 23.5 ESE 10 13 1017.6 - 0.2 - - - - - - -
04/09:00pm 23.5 SE 12 15 1017.5 - 0.2 - - - - - - -
04/08:30pm 23.8 SE 13 16 1017.4 - 0.2 - - - - - - -
04/08:00pm 24.1 SE 13 16 1017.1 - 0.2 - - - - - - -
04/07:30pm 24.0 SE 11 14 1016.8 - 0.2 - - - - - - -
04/07:00pm 24.1 ESE 11 14 1016.3 - 0.2 - - - - - - -
04/06:30pm 24.1 ESE 12 14 1015.9 - 0.2 - - - - - - -
04/06:00pm 24.3 ESE 13 15 1015.5 - 0.2 - - - - - - -
04/05:30pm 24.2 ESE 13 15 1015.1 - 0.2 - - - - - - -
04/05:00pm 24.3 ESE 12 15 1014.9 - 0.2 - - - - - - -
04/04:30pm 24.2 ESE 11 13 1014.7 - 0.2 - - - - - - -
04/04:00pm 24.2 ESE 11 14 1014.6 - 0.2 - - - - - - -
04/03:30pm 24.4 SE 11 14 1014.4 - 0.2 - - - - - - -
04/03:00pm 24.4 SE 11 15 1014.0 - 0.2 - - - - - - -
04/02:30pm 25.1 SE 10 14 1014.1 - 0.2 - - - - - - -
04/02:00pm 24.7 SSE 8 11 1014.0 - 0.2 - - - - - - -
04/01:30pm 24.3 S 8 11 1014.3 - 0.2 - - - - - - -
04/01:00pm 24.1 S 9 15 1014.3 - 0.2 - - - - - - -
04/12:30pm 23.6 SSW 12 17 1014.6 - 0.2 - - - - - - -
04/12:00pm 23.9 SSW 11 17 1014.9 - 0.2 - - - - - - -
04/11:30am 24.1 SW 13 17 1015.2 - 0.2 - - - - - - -
04/11:00am 24.2 SSW 11 16 1015.4 - 0.2 - - - - - - -
04/10:30am 24.1 SSW 15 21 1015.6 - 0.2 - - - - - - -
04/10:00am 23.5 SSW 17 25 1015.8 - 0.2 - - - - - - -
04/09:30am 23.8 SSW 15 20 1015.7 - 0.0 - - - - - - -
04/09:00am 23.9 WSW 9 13 1015.5 - 10.0 Rain - - - - - -
04/08:30am 25.7 WNW 9 12 1015.5 - 0.0 - - - - - - -
04/08:00am 25.6 WNW 9 11 1015.5 - 0.0 - - - - - - -
04/07:30am 25.5 WNW 8 11 1015.1 - 0.0 - - - - - - -
04/07:00am 25.3 WNW 7 9 1014.7 - 0.0 - - - - - - -
04/06:30am 25.2 NW 7 9 1014.4 - 0.0 - - - - - - -
04/06:00am 25.2 NW 6 8 1013.9 - 0.0 - - - - - - -
04/05:30am 25.2 NW 7 11 1013.8 - 0.0 - - - - - - -
04/05:00am 25.1 NW 8 10 1013.5 - 0.0 - - - - - - -
04/04:30am 25.2 NW 7 9 1013.4 - 0.0 - - - - - - -
04/04:00am 25.1 NW 6 8 1013.0 - 0.0 - - - - - - -
04/03:30am 25.0 WNW 8 11 1012.9 - 0.0 - - - - - - -
04/03:00am 25.1 WNW 8 11 1013.0 - 0.0 - - - - - - -

Other Formats:

Comma delimited format used in spreadsheet applications
http://www.bom.gov.au/fwo/IDQ60701/IDQ60701.94388.axf

JavaScript Object Notation format (JSON) in row-major order
http://www.bom.gov.au/fwo/IDQ60701/IDQ60701.94388.json